createdAt,value
2022-10-16T00:02:16.573Z,1.90
2022-10-16T00:04:46.956Z,2.00
2022-10-16T00:07:28.452Z,1.73
2022-10-16T00:10:00.263Z,1.77
2022-10-16T00:12:32.462Z,1.55
2022-10-16T00:15:02.932Z,1.93
2022-10-16T00:17:37.622Z,1.80
2022-10-16T00:20:07.414Z,1.95
2022-10-16T00:22:42.573Z,2.15
2022-10-16T00:25:22.214Z,1.70
2022-10-16T00:27:52.460Z,1.67
2022-10-16T00:30:25.126Z,2.03
2022-10-16T00:32:55.688Z,1.67
2022-10-16T00:35:38.406Z,1.92
2022-10-16T00:38:10.866Z,1.92
2022-10-16T00:40:40.188Z,1.92
2022-10-16T00:43:16.579Z,1.80
2022-10-16T00:45:48.770Z,1.80
2022-10-16T00:48:17.285Z,2.17
2022-10-16T00:50:52.807Z,2.15
2022-10-16T00:53:25.962Z,1.70
2022-10-16T00:58:29.203Z,1.88
2022-10-16T01:00:57.778Z,1.92
2022-10-16T01:03:36.222Z,2.03
2022-10-16T01:09:14.589Z,1.58
2022-10-16T01:11:56.090Z,1.80
2022-10-16T01:14:41.564Z,1.65
2022-10-16T01:17:18.192Z,1.90
2022-10-16T01:20:05.831Z,1.67
2022-10-16T01:23:07.084Z,2.05
2022-10-16T01:26:13.204Z,2.10
2022-10-16T01:28:51.212Z,2.00
2022-10-16T01:31:29.644Z,2.10
2022-10-16T01:34:07.139Z,1.85
2022-10-16T01:36:46.744Z,2.00
2022-10-16T01:39:42.189Z,2.08
2022-10-16T01:42:26.837Z,2.13
2022-10-16T01:45:07.548Z,2.13
2022-10-16T01:48:00.390Z,2.20
2022-10-16T01:50:31.775Z,2.00
2022-10-16T01:53:07.230Z,2.45
2022-10-16T01:56:10.144Z,2.20
2022-10-16T01:58:58.659Z,2.10
2022-10-16T02:01:50.559Z,2.63
2022-10-16T02:04:31.617Z,2.20
2022-10-16T02:07:04.282Z,2.00
2022-10-16T02:09:46.519Z,1.95
2022-10-16T02:12:35.280Z,2.30
2022-10-16T02:15:14.280Z,2.50
2022-10-16T02:17:46.076Z,2.15
2022-10-16T02:20:20.111Z,2.30
2022-10-16T02:22:57.744Z,1.85
2022-10-16T02:25:38.396Z,2.30
2022-10-16T02:28:18.767Z,2.97
2022-10-16T02:30:59.917Z,2.78
2022-10-16T02:33:35.117Z,2.92
2022-10-16T02:36:17.587Z,3.38
2022-10-16T02:38:49.074Z,2.80
2022-10-16T02:41:21.581Z,2.67
2022-10-16T02:44:00.441Z,2.20
2022-10-16T02:46:32.543Z,1.77
2022-10-16T02:49:05.628Z,2.10
2022-10-16T02:51:35.519Z,2.83
2022-10-16T02:54:05.122Z,2.45
2022-10-16T02:56:50.912Z,2.28
2022-10-16T02:59:21.420Z,2.20
2022-10-16T03:01:50.364Z,2.00
2022-10-16T03:04:24.753Z,1.92
2022-10-16T03:06:53.886Z,2.10
2022-10-16T03:09:27.304Z,1.98
2022-10-16T03:12:01.864Z,2.05
2022-10-16T03:14:34.557Z,2.03
2022-10-16T03:17:16.296Z,2.43
2022-10-16T03:20:01.370Z,2.30
2022-10-16T03:22:32.797Z,2.05
2022-10-16T03:25:09.570Z,2.15
2022-10-16T03:27:50.225Z,2.60
2022-10-16T03:30:24.100Z,2.20
2022-10-16T03:32:58.432Z,2.58
2022-10-16T03:35:37.235Z,2.80
2022-10-16T03:38:11.862Z,2.45
2022-10-16T03:40:41.593Z,2.85
2022-10-16T03:43:25.877Z,2.45
2022-10-16T03:45:58.923Z,2.50
2022-10-16T03:48:30.332Z,2.22
2022-10-16T03:51:04.530Z,2.17
2022-10-16T03:53:42.533Z,2.65
2022-10-16T03:56:15.751Z,2.50
2022-10-16T03:58:51.363Z,2.15
2022-10-16T04:01:25.784Z,2.15
2022-10-16T04:04:01.312Z,2.13
2022-10-16T04:06:37.518Z,2.50
2022-10-16T04:09:09.305Z,2.42
2022-10-16T04:11:46.539Z,2.50
2022-10-16T04:14:19.331Z,2.70
2022-10-16T04:16:52.641Z,2.40
2022-10-16T04:19:28.133Z,2.35
2022-10-16T04:22:06.141Z,2.38
2022-10-16T04:24:38.194Z,2.70
2022-10-16T04:27:08.999Z,2.45
2022-10-16T04:29:38.762Z,2.42
2022-10-16T04:32:12.356Z,2.78
2022-10-16T04:34:49.560Z,2.70
2022-10-16T04:37:33.933Z,2.90
2022-10-16T04:40:06.238Z,2.58
2022-10-16T04:42:38.307Z,3.15
2022-10-16T04:45:12.103Z,2.53
2022-10-16T04:47:51.411Z,2.88
2022-10-16T04:50:41.241Z,2.60
2022-10-16T04:53:23.033Z,2.60
2022-10-16T04:56:10.605Z,2.80
2022-10-16T04:58:46.194Z,2.70
2022-10-16T05:01:32.069Z,3.05
2022-10-16T05:04:22.973Z,3.17
2022-10-16T05:07:05.252Z,3.47
2022-10-16T05:09:37.866Z,3.80
2022-10-16T05:12:26.231Z,3.35
2022-10-16T05:15:05.131Z,2.97
2022-10-16T05:17:34.835Z,3.55
2022-10-16T05:20:18.735Z,3.55
2022-10-16T05:22:50.069Z,3.70
2022-10-16T05:25:24.004Z,4.10
2022-10-16T05:28:02.735Z,3.70
2022-10-16T05:30:38.613Z,3.58
2022-10-16T05:33:18.477Z,3.60
2022-10-16T05:35:51.989Z,3.45
2022-10-16T05:38:24.879Z,3.67
2022-10-16T05:41:13.934Z,3.85
2022-10-16T05:43:57.877Z,3.25
2022-10-16T05:46:27.204Z,3.80
2022-10-16T05:49:11.057Z,3.42
2022-10-16T05:51:48.033Z,3.47
2022-10-16T05:54:26.951Z,3.10
2022-10-16T05:57:09.280Z,3.58
2022-10-16T05:59:44.879Z,3.72
2022-10-16T06:02:18.797Z,3.65
2022-10-16T06:04:51.529Z,3.10
2022-10-16T06:07:28.006Z,3.30
2022-10-16T06:10:08.635Z,3.55
2022-10-16T06:12:40.119Z,3.20
2022-10-16T06:15:18.097Z,3.10
2022-10-16T06:17:59.644Z,2.95
2022-10-16T06:20:39.335Z,3.90
2022-10-16T06:23:15.943Z,3.22
2022-10-16T06:25:50.476Z,3.28
2022-10-16T06:28:22.405Z,3.20
2022-10-16T06:31:05.618Z,3.65
2022-10-16T06:33:37.168Z,4.05
2022-10-16T06:36:09.366Z,4.10
2022-10-16T06:38:47.099Z,3.70
2022-10-16T06:41:19.141Z,3.33
2022-10-16T06:43:51.449Z,3.10
2022-10-16T06:46:25.015Z,3.35
2022-10-16T06:48:53.907Z,3.25
2022-10-16T06:51:25.154Z,3.67
2022-10-16T06:54:02.790Z,3.90
2022-10-16T06:56:33.423Z,3.05
2022-10-16T06:59:04.603Z,5.47
2022-10-16T07:01:38.034Z,4.32
2022-10-16T07:04:07.429Z,3.97
2022-10-16T07:06:38.683Z,3.70
2022-10-16T07:09:09.078Z,4.00
2022-10-16T07:11:40.673Z,3.47
2022-10-16T07:14:18.728Z,3.40
2022-10-16T07:16:51.148Z,3.30
2022-10-16T07:19:20.123Z,3.38
2022-10-16T07:21:50.225Z,3.20
2022-10-16T07:24:20.614Z,4.00
2022-10-16T07:26:51.832Z,3.47
2022-10-16T07:29:24.548Z,3.30
2022-10-16T07:31:55.695Z,4.32
2022-10-16T07:34:24.303Z,4.40
2022-10-16T07:36:53.844Z,4.15
2022-10-16T07:39:24.330Z,3.70
2022-10-16T07:41:53.123Z,3.78
2022-10-16T07:44:21.927Z,3.88
2022-10-16T07:46:50.904Z,3.63
2022-10-16T07:49:22.740Z,3.80
2022-10-16T07:51:51.049Z,3.63
2022-10-16T07:54:26.724Z,3.88
2022-10-16T07:56:55.583Z,4.05
2022-10-16T07:59:23.948Z,3.72
2022-10-16T08:01:52.716Z,3.25
2022-10-16T08:04:22.707Z,2.95
2022-10-16T08:06:55.399Z,3.08
2022-10-16T08:09:26.977Z,3.03
2022-10-16T08:12:02.104Z,3.17
2022-10-16T08:14:30.902Z,3.00
2022-10-16T08:17:03.289Z,2.78
2022-10-16T08:19:35.910Z,3.72
2022-10-16T08:22:05.498Z,3.58
2022-10-16T08:24:35.854Z,3.63
2022-10-16T08:27:05.334Z,3.80
2022-10-16T08:29:35.690Z,3.13
2022-10-16T08:32:06.300Z,4.03
2022-10-16T08:34:39.571Z,3.92
2022-10-16T08:37:09.107Z,3.08
2022-10-16T08:39:39.268Z,2.53
2022-10-16T08:42:22.598Z,2.38
2022-10-16T08:47:47.835Z,2.10
2022-10-16T08:50:25.102Z,1.92
2022-10-16T08:52:57.273Z,2.35
2022-10-16T08:55:36.552Z,2.17
2022-10-16T08:58:13.406Z,2.58
2022-10-16T09:00:46.923Z,2.78
2022-10-16T09:03:24.571Z,2.60
2022-10-16T09:06:17.002Z,3.22
2022-10-16T09:09:03.438Z,3.20
2022-10-16T09:11:41.262Z,3.20
2022-10-16T09:14:37.441Z,2.53
2022-10-16T09:17:19.427Z,2.83
2022-10-16T09:19:54.751Z,2.60
2022-10-16T09:22:29.522Z,2.78
2022-10-16T09:25:04.264Z,2.58
2022-10-16T09:27:33.422Z,2.30
2022-10-16T09:30:13.332Z,1.95
2022-10-16T09:32:42.613Z,2.03
2022-10-16T09:35:22.127Z,1.80
2022-10-16T09:37:57.425Z,1.80
2022-10-16T09:40:32.182Z,1.98
2022-10-16T09:43:08.994Z,1.90
2022-10-16T09:45:42.834Z,1.98
2022-10-16T09:48:14.811Z,1.85
2022-10-16T09:50:46.114Z,2.00
2022-10-16T09:53:22.244Z,1.58
2022-10-16T09:55:52.389Z,2.03
2022-10-16T09:58:25.075Z,1.65
2022-10-16T10:00:57.124Z,2.03
2022-10-16T10:03:38.049Z,1.80
2022-10-16T10:06:21.371Z,1.70
2022-10-16T10:11:58.663Z,1.60
2022-10-16T10:14:38.366Z,1.70
2022-10-16T10:17:17.572Z,1.73
2022-10-16T10:19:50.667Z,1.80
2022-10-16T10:25:14.219Z,2.30
2022-10-16T10:27:53.261Z,1.60
2022-10-16T10:30:27.338Z,1.85
2022-10-16T10:33:14.174Z,1.70
2022-10-16T10:35:51.636Z,1.70
2022-10-16T10:38:34.354Z,1.65
2022-10-16T10:41:26.648Z,1.80
2022-10-16T10:44:12.476Z,1.40
2022-10-16T10:46:45.820Z,1.50
2022-10-16T10:49:40.160Z,1.70
2022-10-16T10:52:29.438Z,1.80
2022-10-16T10:55:03.011Z,1.77
2022-10-16T10:57:44.164Z,1.83
2022-10-16T11:00:23.979Z,1.45
2022-10-16T11:03:00.164Z,1.60
2022-10-16T11:05:42.896Z,1.80
2022-10-16T11:08:20.490Z,1.70
2022-10-16T11:10:53.880Z,1.52
2022-10-16T11:13:49.467Z,1.45
2022-10-16T11:16:22.788Z,2.00
2022-10-16T11:19:00.682Z,1.92
2022-10-16T11:21:34.052Z,2.28
2022-10-16T11:24:07.338Z,1.85
2022-10-16T11:26:44.317Z,1.58
2022-10-16T11:29:21.647Z,1.70
2022-10-16T11:31:55.323Z,1.38
2022-10-16T11:34:35.537Z,1.77
2022-10-16T11:37:11.297Z,1.95
2022-10-16T11:39:43.442Z,4.75
2022-10-16T11:42:19.382Z,2.03
2022-10-16T11:45:01.118Z,1.75
2022-10-16T11:53:29.513Z,2.20
2022-10-16T11:55:59.899Z,1.80
2022-10-16T11:58:35.365Z,1.73
2022-10-16T12:01:20.505Z,2.10
2022-10-16T12:03:57.746Z,1.88
2022-10-16T12:06:34.051Z,1.70
2022-10-16T12:09:05.217Z,1.52
2022-10-16T12:11:39.534Z,1.63
2022-10-16T12:14:19.927Z,1.70
2022-10-16T12:16:57.817Z,1.50
2022-10-16T12:19:28.490Z,1.85
2022-10-16T12:22:00.401Z,1.40
2022-10-16T12:24:36.735Z,1.70
2022-10-16T12:27:07.707Z,1.55
2022-10-16T12:29:41.089Z,1.65
2022-10-16T12:32:47.148Z,1.40
2022-10-16T12:35:24.112Z,1.90
2022-10-16T12:37:53.406Z,1.65
2022-10-16T12:40:33.549Z,1.40
2022-10-16T12:43:12.953Z,1.48
2022-10-16T12:45:46.553Z,1.70
2022-10-16T12:48:29.318Z,1.40
2022-10-16T12:51:23.937Z,1.67
2022-10-16T12:54:01.116Z,1.58
2022-10-16T12:56:46.471Z,1.60
2022-10-16T12:59:24.150Z,1.52
2022-10-16T13:02:10.703Z,1.70
2022-10-16T13:05:21.232Z,1.40
2022-10-16T13:08:02.942Z,1.83
2022-10-16T13:10:37.936Z,1.65
2022-10-16T13:13:24.370Z,1.70
2022-10-16T13:16:05.766Z,1.70
2022-10-16T13:18:46.572Z,1.63
2022-10-16T13:21:27.583Z,1.98
2022-10-16T13:24:03.969Z,2.08
2022-10-16T13:26:43.316Z,1.98
2022-10-16T13:29:12.314Z,2.00
2022-10-16T13:31:41.013Z,2.17
2022-10-16T13:34:16.921Z,2.15
2022-10-16T13:36:52.427Z,1.73
2022-10-16T13:39:26.864Z,1.80
2022-10-16T13:42:09.006Z,1.70
2022-10-16T13:44:42.235Z,2.10
2022-10-16T13:49:45.578Z,3.10
2022-10-16T13:52:23.311Z,2.53
2022-10-16T13:54:52.078Z,1.95
2022-10-16T13:57:27.921Z,2.60
2022-10-16T13:59:56.533Z,2.05
2022-10-16T14:02:29.902Z,2.05
2022-10-16T14:05:02.313Z,2.65
2022-10-16T14:07:38.585Z,5.07
2022-10-16T14:10:09.495Z,4.57
2022-10-16T14:12:39.466Z,5.32
2022-10-16T14:15:21.836Z,5.70
2022-10-16T14:17:54.484Z,3.83
2022-10-16T14:20:28.426Z,3.42
2022-10-16T14:23:20.975Z,3.30
2022-10-16T14:25:56.593Z,2.93
2022-10-16T14:28:26.013Z,2.60
2022-10-16T14:30:59.233Z,2.35
2022-10-16T14:33:35.646Z,3.00
2022-10-16T14:36:06.896Z,3.95
2022-10-16T14:38:38.689Z,3.65
2022-10-16T14:41:07.734Z,3.67
2022-10-16T14:43:39.787Z,3.05
2022-10-16T14:46:14.347Z,3.15
2022-10-16T14:48:44.544Z,2.72
2022-10-16T14:51:17.131Z,2.42
2022-10-16T14:53:47.945Z,2.90
2022-10-16T14:56:20.240Z,2.58
2022-10-16T14:58:48.776Z,2.28
2022-10-16T15:01:17.021Z,2.10
2022-10-16T15:03:46.320Z,2.42
2022-10-16T15:06:26.125Z,2.45
2022-10-16T15:08:55.665Z,2.42
2022-10-16T15:11:24.482Z,2.30
2022-10-16T15:13:53.713Z,2.40
2022-10-16T15:16:21.877Z,2.75
2022-10-16T15:18:49.892Z,2.78
2022-10-16T15:21:30.890Z,2.42
2022-10-16T15:24:02.201Z,2.92
2022-10-16T15:26:32.704Z,3.28
2022-10-16T15:29:01.290Z,3.25
2022-10-16T15:31:29.572Z,2.80
2022-10-16T15:34:03.137Z,2.95
2022-10-16T15:36:34.756Z,3.15
2022-10-16T15:39:05.345Z,3.15
2022-10-16T15:41:37.656Z,2.90
2022-10-16T15:44:06.508Z,2.88
2022-10-16T15:46:38.797Z,2.47
2022-10-16T15:49:08.392Z,2.50
2022-10-16T15:51:40.753Z,2.40
2022-10-16T15:54:10.502Z,2.53
2022-10-16T15:56:39.205Z,2.45
2022-10-16T15:59:08.362Z,2.88
2022-10-16T16:01:36.721Z,2.65
2022-10-16T16:04:11.341Z,2.88
2022-10-16T16:06:55.615Z,3.08
2022-10-16T16:09:25.436Z,3.25
2022-10-16T16:11:53.716Z,2.97
2022-10-16T16:14:22.355Z,2.90
2022-10-16T16:16:51.460Z,2.85
2022-10-16T16:19:22.320Z,3.05
2022-10-16T16:21:51.438Z,3.03
2022-10-16T16:24:22.885Z,2.80
2022-10-16T16:26:53.677Z,3.13
2022-10-16T16:29:22.059Z,3.50
2022-10-16T16:31:50.675Z,3.90
2022-10-16T16:34:19.377Z,3.22
2022-10-16T16:36:47.389Z,3.92
2022-10-16T16:39:16.106Z,4.65
2022-10-16T16:41:52.492Z,4.00
2022-10-16T16:44:22.239Z,3.90
2022-10-16T16:46:53.301Z,3.95
2022-10-16T16:49:21.419Z,4.28
2022-10-16T16:51:50.414Z,3.65
2022-10-16T16:54:19.258Z,3.75
2022-10-16T16:56:47.334Z,4.07
2022-10-16T16:59:17.913Z,4.22
2022-10-16T17:01:58.085Z,5.07
2022-10-16T17:04:26.543Z,4.75
2022-10-16T17:06:57.953Z,5.03
2022-10-16T17:09:27.096Z,4.82
2022-10-16T17:11:57.358Z,5.47
2022-10-16T17:14:26.690Z,5.18
2022-10-16T17:17:07.798Z,5.07
2022-10-16T17:19:36.447Z,4.93
2022-10-16T17:22:05.325Z,5.63
2022-10-16T17:24:33.971Z,5.35
2022-10-16T17:27:04.391Z,5.65
2022-10-16T17:29:34.965Z,5.60
2022-10-16T17:32:08.408Z,5.68
2022-10-16T17:34:37.029Z,6.05
2022-10-16T17:37:05.391Z,5.68
2022-10-16T17:39:33.425Z,7.82
2022-10-16T17:42:04.246Z,5.57
2022-10-16T17:44:33.351Z,6.20
2022-10-16T17:47:02.916Z,6.10
2022-10-16T17:49:32.429Z,5.82
2022-10-16T17:52:02.994Z,6.32
2022-10-16T17:54:31.024Z,5.93
2022-10-16T17:56:59.542Z,6.78
2022-10-16T17:59:29.564Z,6.85
2022-10-16T18:01:57.894Z,6.72
2022-10-16T18:04:26.696Z,7.22
2022-10-16T18:06:57.339Z,8.13
2022-10-16T18:09:26.164Z,10.30
2022-10-16T18:12:01.662Z,9.85
2022-10-16T18:14:32.732Z,11.23
2022-10-16T18:17:10.544Z,12.82
2022-10-16T18:19:38.789Z,10.38
2022-10-16T18:22:08.267Z,8.35
2022-10-16T18:24:38.237Z,7.60
2022-10-16T18:27:07.835Z,8.38
2022-10-16T18:29:36.205Z,7.28
2022-10-16T18:32:04.983Z,6.45
2022-10-16T18:34:37.372Z,5.35
2022-10-16T18:37:06.832Z,5.63
2022-10-16T18:39:36.396Z,5.53
2022-10-16T18:42:04.802Z,5.78
2022-10-16T18:44:35.219Z,5.82
2022-10-16T18:47:03.298Z,5.60
2022-10-16T18:49:35.647Z,5.82
2022-10-16T18:52:03.786Z,6.40
2022-10-16T18:54:38.903Z,6.20
2022-10-16T18:57:07.855Z,5.70
2022-10-16T18:59:36.133Z,5.93
2022-10-16T19:02:04.466Z,7.05
2022-10-16T19:04:33.512Z,8.00
2022-10-16T19:07:01.485Z,9.30
2022-10-16T19:09:29.530Z,9.65
2022-10-16T19:11:59.969Z,9.73
2022-10-16T19:14:30.269Z,9.38
2022-10-16T19:16:59.331Z,9.45
2022-10-16T19:19:27.405Z,8.23
2022-10-16T19:22:11.419Z,8.65
2022-10-16T19:24:40.991Z,7.05
2022-10-16T19:27:10.503Z,6.53
2022-10-16T19:29:40.284Z,7.35
2022-10-16T19:32:09.611Z,8.05
2022-10-16T19:34:38.068Z,10.15
2022-10-16T19:37:10.456Z,8.32
2022-10-16T19:39:41.564Z,7.57
2022-10-16T19:42:11.492Z,7.40
2022-10-16T19:44:42.431Z,6.70
2022-10-16T19:47:11.248Z,6.93
2022-10-16T19:49:40.967Z,6.50
2022-10-16T19:52:09.201Z,6.20
2022-10-16T19:54:39.011Z,6.65
2022-10-16T19:57:06.931Z,7.65
2022-10-16T19:59:38.783Z,7.85
2022-10-16T20:02:10.510Z,7.05
2022-10-16T20:04:44.879Z,7.68
2022-10-16T20:07:13.116Z,8.02
2022-10-16T20:09:41.653Z,7.60
2022-10-16T20:12:09.600Z,7.15
2022-10-16T20:14:39.166Z,8.48
2022-10-16T20:17:07.624Z,8.68
2022-10-16T20:19:35.728Z,8.20
2022-10-16T20:22:03.895Z,7.65
2022-10-16T20:24:40.588Z,8.77
2022-10-16T20:27:16.071Z,9.30
2022-10-16T20:29:50.221Z,9.45
2022-10-16T20:32:19.602Z,7.90
2022-10-16T20:34:50.001Z,8.90
2022-10-16T20:37:27.352Z,9.18
2022-10-16T20:39:57.968Z,9.65
2022-10-16T20:42:26.660Z,8.70
2022-10-16T20:44:58.601Z,8.50
2022-10-16T20:47:30.300Z,8.30
2022-10-16T20:49:59.643Z,6.90
2022-10-16T20:52:30.913Z,7.20
2022-10-16T20:55:04.325Z,7.05
2022-10-16T20:57:34.466Z,8.05
2022-10-16T21:00:09.320Z,6.43
2022-10-16T21:02:40.076Z,6.43
2022-10-16T21:05:10.369Z,6.70
2022-10-16T21:07:43.705Z,6.85
2022-10-16T21:10:13.518Z,6.80
2022-10-16T21:12:44.481Z,6.82
2022-10-16T21:15:15.662Z,7.05
2022-10-16T21:17:46.758Z,6.20
2022-10-16T21:20:22.156Z,6.15
2022-10-16T21:22:54.019Z,7.57
2022-10-16T21:25:35.605Z,8.70
2022-10-16T21:28:12.823Z,9.80
2022-10-16T21:30:47.196Z,10.27
2022-10-16T21:33:16.590Z,10.45
2022-10-16T21:35:48.490Z,10.60
2022-10-16T21:38:22.897Z,10.38
2022-10-16T21:40:57.688Z,9.60
2022-10-16T21:43:36.683Z,8.45
2022-10-16T21:46:10.103Z,8.52
2022-10-16T21:48:43.301Z,9.10
2022-10-16T21:51:19.085Z,8.52
2022-10-16T21:54:03.905Z,7.30
2022-10-16T21:56:37.937Z,7.32
2022-10-16T21:59:23.633Z,7.90
2022-10-16T22:02:05.927Z,6.80
2022-10-16T22:04:43.495Z,7.47
2022-10-16T22:07:26.966Z,7.53
2022-10-16T22:10:03.413Z,8.05
2022-10-16T22:12:32.791Z,7.30
2022-10-16T22:15:07.670Z,8.18
2022-10-16T22:17:41.462Z,7.75
2022-10-16T22:20:13.810Z,8.18
2022-10-16T22:22:55.453Z,7.27
2022-10-16T22:25:25.172Z,7.53
2022-10-16T22:27:56.792Z,6.97
2022-10-16T22:30:30.326Z,7.30
2022-10-16T22:33:09.747Z,6.97
2022-10-16T22:35:40.899Z,7.38
2022-10-16T22:38:10.844Z,6.30
2022-10-16T22:40:42.131Z,6.28
2022-10-16T22:43:16.251Z,6.72
2022-10-16T22:45:45.364Z,5.95
2022-10-16T22:48:17.621Z,5.50
2022-10-16T22:50:49.583Z,5.80
2022-10-16T22:53:21.977Z,6.00
2022-10-16T22:55:55.391Z,6.18
2022-10-16T22:58:27.832Z,5.75
2022-10-16T23:03:33.855Z,6.10
2022-10-16T23:06:07.712Z,6.23
2022-10-16T23:08:39.079Z,6.55
2022-10-16T23:11:11.889Z,7.10
2022-10-16T23:13:47.538Z,6.50
2022-10-16T23:16:27.926Z,6.43
2022-10-16T23:19:03.601Z,6.82
2022-10-16T23:21:32.512Z,6.18
2022-10-16T23:24:04.773Z,6.68
2022-10-16T23:26:37.385Z,6.33
2022-10-16T23:29:09.132Z,6.43
2022-10-16T23:31:40.580Z,6.40
2022-10-16T23:34:16.401Z,6.80
2022-10-16T23:36:51.029Z,5.97
2022-10-16T23:39:20.255Z,6.18
2022-10-16T23:41:57.565Z,5.80
2022-10-16T23:44:28.026Z,6.15
2022-10-16T23:46:58.269Z,5.75
2022-10-16T23:49:39.358Z,6.18
2022-10-16T23:52:16.254Z,5.95
2022-10-16T23:54:48.435Z,5.70
2022-10-16T23:57:19.962Z,6.60
